createdAt,value
2018-11-03T00:00:43.985Z,99083.17
2018-11-03T00:03:12.982Z,99085.89
2018-11-03T00:05:42.179Z,99086.68
2018-11-03T00:08:11.444Z,99090.20
2018-11-03T00:10:40.280Z,99095.34
2018-11-03T00:13:08.997Z,99094.29
2018-11-03T00:15:38.205Z,99097.23
2018-11-03T00:18:08.275Z,99101.58
2018-11-03T00:20:37.710Z,99093.22
2018-11-03T00:23:06.665Z,99089.73
2018-11-03T00:25:35.586Z,99084.09
2018-11-03T00:28:04.360Z,99070.06
2018-11-03T00:30:33.539Z,99067.61
2018-11-03T00:33:02.549Z,99067.61
2018-11-03T00:35:32.852Z,99063.56
2018-11-03T00:38:01.890Z,99063.58
2018-11-03T00:40:30.892Z,99067.06
2018-11-03T00:42:59.506Z,99066.22
2018-11-03T00:45:28.469Z,99060.84
2018-11-03T00:47:57.257Z,99062.69
2018-11-03T00:50:26.222Z,99062.42
2018-11-03T00:52:54.937Z,99059.73
2018-11-03T00:55:23.585Z,99062.69
2018-11-03T00:57:52.297Z,99058.91
2018-11-03T01:00:21.144Z,99058.08
2018-11-03T01:02:50.731Z,99062.38
2018-11-03T01:05:19.596Z,99059.95
2018-11-03T01:07:48.980Z,99060.77
2018-11-03T01:10:18.125Z,99064.25
2018-11-03T01:12:46.899Z,99070.19
2018-11-03T01:15:16.672Z,99061.31
2018-11-03T01:17:45.811Z,99056.16
2018-11-03T01:20:15.900Z,99061.82
2018-11-03T01:22:45.077Z,99065.56
2018-11-03T01:25:14.007Z,99059.16
2018-11-03T01:27:43.522Z,99058.34
2018-11-03T01:30:14.749Z,99062.66
2018-11-03T01:32:43.828Z,99065.63
2018-11-03T01:35:13.192Z,99049.98
2018-11-03T01:37:42.307Z,99050.25
2018-11-03T01:40:12.723Z,99049.13
2018-11-03T01:42:41.351Z,99048.30
2018-11-03T01:45:10.156Z,99052.08
2018-11-03T01:47:39.261Z,99053.69
2018-11-03T01:50:09.660Z,99059.89
2018-11-03T01:52:38.926Z,99063.67
2018-11-03T01:55:08.239Z,99056.65
2018-11-03T01:57:39.407Z,99064.46
2018-11-03T02:00:08.991Z,99065.78
2018-11-03T02:02:38.711Z,99065.52
2018-11-03T02:05:08.788Z,99062.25
2018-11-03T02:07:37.876Z,99061.69
2018-11-03T02:10:08.101Z,99064.39
2018-11-03T02:12:37.815Z,99062.75
2018-11-03T02:15:06.823Z,99067.08
2018-11-03T02:17:36.038Z,99067.63
2018-11-03T02:20:06.263Z,99065.77
2018-11-03T02:22:36.098Z,99061.98
2018-11-03T02:25:05.338Z,99060.64
2018-11-03T02:27:34.603Z,99062.53
2018-11-03T02:30:04.083Z,99061.19
2018-11-03T02:32:32.912Z,99069.23
2018-11-03T02:35:02.370Z,99072.52
2018-11-03T02:37:31.700Z,99069.03
2018-11-03T02:40:00.706Z,99068.80
2018-11-03T02:42:30.133Z,99061.27
2018-11-03T02:44:58.900Z,99066.66
2018-11-03T02:47:27.772Z,99067.18
2018-11-03T02:49:56.616Z,99062.61
2018-11-03T02:52:25.442Z,99062.61
2018-11-03T02:54:54.945Z,99068.00
2018-11-03T02:57:23.741Z,99062.61
2018-11-03T02:59:52.480Z,99061.55
2018-11-03T03:02:22.055Z,99065.36
2018-11-03T03:04:50.984Z,99068.05
2018-11-03T03:07:20.175Z,99071.56
2018-11-03T03:09:49.376Z,99072.35
2018-11-03T03:12:18.491Z,99068.86
2018-11-03T03:14:47.106Z,99070.50
2018-11-03T03:17:16.236Z,99072.67
2018-11-03T03:19:44.820Z,99078.06
2018-11-03T03:22:13.700Z,99077.78
2018-11-03T03:24:42.818Z,99078.84
2018-11-03T03:27:11.536Z,99083.46
2018-11-03T03:29:40.413Z,99082.11
2018-11-03T03:32:09.127Z,99091.31
2018-11-03T03:34:37.802Z,99087.53
2018-11-03T03:37:06.966Z,99091.86
2018-11-03T03:39:36.213Z,99093.73
2018-11-03T03:42:04.880Z,99088.61
2018-11-03T03:44:33.630Z,99093.18
2018-11-03T03:47:03.106Z,99099.63
2018-11-03T03:49:32.053Z,99107.70
2018-11-03T03:52:01.384Z,99104.75
2018-11-03T03:54:30.971Z,99105.80
2018-11-03T03:56:59.892Z,99101.48
2018-11-03T03:59:28.686Z,99100.13
2018-11-03T04:01:57.405Z,99095.80
2018-11-03T04:04:26.535Z,99101.48
2018-11-03T04:06:56.929Z,99097.14
2018-11-03T04:09:26.999Z,99100.36
2018-11-03T04:11:56.116Z,99096.33
2018-11-03T04:14:26.290Z,99100.08
2018-11-03T04:16:55.172Z,99087.70
2018-11-03T04:19:23.793Z,99087.70
2018-11-03T04:21:53.966Z,99089.30
2018-11-03T04:24:22.912Z,99084.73
2018-11-03T04:26:51.640Z,99080.41
2018-11-03T04:29:20.348Z,99072.06
2018-11-03T04:31:49.824Z,99079.62
2018-11-03T04:34:18.479Z,99079.33
2018-11-03T04:36:47.308Z,99080.14
2018-11-03T04:39:16.213Z,99071.25
2018-11-03T04:41:44.974Z,99070.95
2018-11-03T04:44:13.728Z,99081.73
2018-11-03T04:46:43.319Z,99080.38
2018-11-03T04:49:12.362Z,99084.16
2018-11-03T04:51:41.027Z,99078.27
2018-11-03T04:54:10.302Z,99076.34
2018-11-03T04:56:39.342Z,99079.03
2018-11-03T04:59:09.064Z,99078.22
2018-11-03T05:01:38.677Z,99079.83
2018-11-03T05:04:07.886Z,99079.52
2018-11-03T05:06:37.348Z,99084.39
2018-11-03T05:09:08.326Z,99077.32
2018-11-03T05:11:37.097Z,99074.09
2018-11-03T05:14:07.289Z,99076.53
2018-11-03T05:16:37.253Z,99070.06
2018-11-03T05:19:06.477Z,99071.37
2018-11-03T05:21:35.258Z,99079.20
2018-11-03T05:24:04.110Z,99079.45
2018-11-03T05:26:32.769Z,99086.72
2018-11-03T05:29:01.423Z,99081.33
2018-11-03T05:31:30.327Z,99085.08
2018-11-03T05:33:59.348Z,99078.87
2018-11-03T05:36:28.914Z,99081.80
2018-11-03T05:38:57.625Z,99091.20
2018-11-03T05:41:26.233Z,99091.20
2018-11-03T05:43:55.383Z,99097.40
2018-11-03T05:46:24.732Z,99090.94
2018-11-03T05:48:54.764Z,99096.58
2018-11-03T05:51:24.089Z,99095.50
2018-11-03T05:53:53.307Z,99088.53
2018-11-03T05:56:22.444Z,99089.61
2018-11-03T05:58:51.872Z,99089.33
2018-11-03T06:01:21.181Z,99089.88
2018-11-03T06:03:49.799Z,99090.70
2018-11-03T06:06:19.364Z,99090.44
2018-11-03T06:08:48.145Z,99079.43
2018-11-03T06:11:16.963Z,99072.94
2018-11-03T06:13:45.687Z,99090.46
2018-11-03T06:16:15.393Z,99094.77
2018-11-03T06:18:44.538Z,99095.59
2018-11-03T06:21:14.002Z,99094.23
2018-11-03T06:23:43.971Z,99093.71
2018-11-03T06:26:12.780Z,99082.94
2018-11-03T06:28:42.388Z,99089.44
2018-11-03T06:31:11.622Z,99091.36
2018-11-03T06:33:40.408Z,99091.59
2018-11-03T06:36:09.254Z,99093.27
2018-11-03T06:38:38.131Z,99094.90
2018-11-03T06:41:07.224Z,99092.77
2018-11-03T06:43:35.920Z,99101.39
2018-11-03T06:46:05.395Z,99105.73
2018-11-03T06:48:35.099Z,99105.46
2018-11-03T06:51:04.408Z,99104.94
2018-11-03T06:53:33.611Z,99104.96
2018-11-03T06:56:02.482Z,99105.78
2018-11-03T06:58:31.227Z,99104.98
2018-11-03T07:01:00.530Z,99101.23
2018-11-03T07:03:29.553Z,99109.08
2018-11-03T07:05:58.389Z,99103.42
2018-11-03T07:08:27.860Z,99112.38
2018-11-03T07:10:56.941Z,99100.30
2018-11-03T07:13:26.664Z,99104.63
2018-11-03T07:15:55.530Z,99106.26
2018-11-03T07:18:27.087Z,99109.00
2018-11-03T07:20:56.832Z,99095.28
2018-11-03T07:23:25.603Z,99098.32
2018-11-03T07:25:54.390Z,99096.98
2018-11-03T07:28:23.720Z,99100.21
2018-11-03T07:30:52.322Z,99098.39
2018-11-03T07:33:21.389Z,99097.64
2018-11-03T07:35:50.359Z,99095.22
2018-11-03T07:38:19.578Z,99095.81
2018-11-03T07:40:48.975Z,99098.27
2018-11-03T07:43:17.989Z,99096.67
2018-11-03T07:45:46.913Z,99096.95
2018-11-03T07:48:16.231Z,99098.59
2018-11-03T07:50:45.030Z,99099.72
2018-11-03T07:53:13.891Z,99098.11
2018-11-03T07:55:43.078Z,99100.88
2018-11-03T07:58:12.437Z,99100.37
2018-11-03T08:00:41.945Z,99109.03
2018-11-03T08:03:10.902Z,99107.42
2018-11-03T08:05:40.148Z,99104.73
2018-11-03T08:08:10.291Z,99109.34
2018-11-03T08:10:39.193Z,99110.44
2018-11-03T08:13:09.804Z,99103.96
2018-11-03T08:15:38.731Z,99104.25
2018-11-03T08:18:07.453Z,99099.67
2018-11-03T08:20:36.354Z,99105.88
2018-11-03T08:23:05.848Z,99104.27
2018-11-03T08:25:35.093Z,99099.45
2018-11-03T08:28:04.665Z,99102.95
2018-11-03T08:30:33.334Z,99096.48
2018-11-03T08:33:02.599Z,99094.31
2018-11-03T08:35:31.567Z,99088.11
2018-11-03T08:38:00.574Z,99087.55
2018-11-03T08:40:29.454Z,99084.33
2018-11-03T08:42:58.329Z,99081.31
2018-11-03T08:45:27.672Z,99085.13
2018-11-03T08:47:56.264Z,99094.87
2018-11-03T08:50:26.348Z,99094.55
2018-11-03T08:52:55.497Z,99088.08
2018-11-03T08:55:24.472Z,99093.23
2018-11-03T08:57:53.385Z,99088.89
2018-11-03T09:00:22.962Z,99088.36
2018-11-03T09:02:51.801Z,99086.50
2018-11-03T09:05:21.423Z,99091.63
2018-11-03T09:07:50.570Z,99098.13
2018-11-03T09:10:19.656Z,99101.09
2018-11-03T09:12:48.444Z,99095.67
2018-11-03T09:15:17.503Z,99093.25
2018-11-03T09:17:46.709Z,99101.11
2018-11-03T09:20:15.855Z,99098.68
2018-11-03T09:22:44.796Z,99096.77
2018-11-03T09:25:14.774Z,99107.58
2018-11-03T09:27:45.070Z,99106.52
2018-11-03T09:30:17.728Z,99090.81
2018-11-03T09:32:46.990Z,99085.38
2018-11-03T09:35:17.041Z,99081.59
2018-11-03T09:37:46.520Z,99076.72
2018-11-03T09:40:16.738Z,99072.38
2018-11-03T09:42:46.647Z,99071.84
2018-11-03T09:45:16.743Z,99076.97
2018-11-03T09:47:46.404Z,99069.14
2018-11-03T09:50:16.248Z,99071.28
2018-11-03T09:52:45.825Z,99066.93
2018-11-03T09:55:16.764Z,99070.45
2018-11-03T09:57:46.372Z,99075.05
2018-11-03T10:00:17.199Z,99076.39
2018-11-03T10:02:46.370Z,99080.98
2018-11-03T10:05:16.358Z,99081.80
2018-11-03T10:07:45.793Z,99082.34
2018-11-03T10:10:16.144Z,99074.50
2018-11-03T10:12:45.373Z,99073.10
2018-11-03T10:15:15.710Z,99072.81
2018-11-03T10:17:45.691Z,99077.14
2018-11-03T10:20:14.920Z,99076.55
2018-11-03T10:22:44.271Z,99082.14
2018-11-03T10:25:18.386Z,99077.45
2018-11-03T10:27:48.200Z,99070.16
2018-11-03T10:30:18.481Z,99069.22
2018-11-03T10:32:47.994Z,99061.81
2018-11-03T10:35:17.465Z,99061.91
2018-11-03T10:37:46.821Z,99054.61
2018-11-03T10:40:17.819Z,99056.94
2018-11-03T10:42:47.578Z,99050.75
2018-11-03T10:45:17.621Z,99044.33
2018-11-03T10:47:47.017Z,99041.81
2018-11-03T10:50:18.234Z,99051.14
2018-11-03T10:52:48.480Z,99048.43
2018-11-03T10:55:19.014Z,99051.42
2018-11-03T10:57:47.976Z,99040.03
2018-11-03T11:00:24.160Z,99043.30
2018-11-03T11:02:58.759Z,99042.18
2018-11-03T11:05:33.447Z,99041.08
2018-11-03T11:08:08.550Z,99037.92
2018-11-03T11:10:42.966Z,99033.61
2018-11-03T11:13:17.054Z,99035.91
2018-11-03T11:15:49.045Z,99036.43
2018-11-03T11:18:18.513Z,99027.18
2018-11-03T11:20:47.802Z,99017.30
2018-11-03T11:23:17.108Z,99011.51
2018-11-03T11:25:46.434Z,99005.52
2018-11-03T11:28:15.456Z,99005.61
2018-11-03T11:30:46.136Z,99002.96
2018-11-03T11:33:16.627Z,98995.74
2018-11-03T11:35:46.004Z,98994.30
2018-11-03T11:38:15.824Z,98985.76
2018-11-03T11:40:45.600Z,98984.94
2018-11-03T11:43:15.228Z,98981.85
2018-11-03T11:45:45.091Z,98979.16
2018-11-03T11:48:14.298Z,98972.33
2018-11-03T11:50:43.572Z,98974.99
2018-11-03T11:53:12.765Z,98971.30
2018-11-03T11:55:41.840Z,98964.34
2018-11-03T11:58:11.116Z,98968.72
2018-11-03T12:00:40.438Z,98966.84
2018-11-03T12:03:10.279Z,98954.53
2018-11-03T12:05:40.630Z,98947.81
2018-11-03T12:08:10.054Z,98950.22
2018-11-03T12:10:39.266Z,98948.72
2018-11-03T12:13:09.333Z,98939.31
2018-11-03T12:15:38.608Z,98934.94
2018-11-03T12:18:07.714Z,98934.88
2018-11-03T12:20:37.241Z,98930.12
2018-11-03T12:23:06.240Z,98917.03
2018-11-03T12:25:35.033Z,98915.91
2018-11-03T12:28:03.689Z,98904.41
2018-11-03T12:30:32.791Z,98897.43
2018-11-03T12:33:01.985Z,98890.85
2018-11-03T12:35:31.231Z,98891.73
2018-11-03T12:38:00.185Z,98889.62
2018-11-03T12:40:30.200Z,98880.50
2018-11-03T12:42:59.896Z,98881.86
2018-11-03T12:45:29.349Z,98878.58
2018-11-03T12:47:58.594Z,98878.47
2018-11-03T12:50:27.665Z,98880.44
2018-11-03T12:52:56.674Z,98876.34
2018-11-03T12:55:26.044Z,98861.05
2018-11-03T12:57:55.209Z,98865.73
2018-11-03T13:00:24.502Z,98858.83
2018-11-03T13:02:53.698Z,98860.01
2018-11-03T13:05:22.779Z,98855.36
2018-11-03T13:07:52.661Z,98848.60
2018-11-03T13:10:21.396Z,98852.02
2018-11-03T13:12:50.551Z,98853.80
2018-11-03T13:15:19.666Z,98846.89
2018-11-03T13:17:48.951Z,98847.81
2018-11-03T13:20:18.560Z,98846.84
2018-11-03T13:22:48.796Z,98837.05
2018-11-03T13:25:17.880Z,98837.98
2018-11-03T13:27:47.046Z,98835.84
2018-11-03T13:30:16.298Z,98827.73
2018-11-03T13:32:45.471Z,98827.04
2018-11-03T13:35:15.575Z,98821.70
2018-11-03T13:37:44.860Z,98821.79
2018-11-03T13:40:14.855Z,98817.75
2018-11-03T13:42:44.799Z,98815.59
2018-11-03T13:45:14.222Z,98813.02
2018-11-03T13:47:43.391Z,98815.27
2018-11-03T13:50:14.941Z,98806.88
2018-11-03T13:52:52.904Z,98809.36
2018-11-03T13:55:22.630Z,98814.46
2018-11-03T13:57:52.291Z,98806.70
2018-11-03T14:00:21.723Z,98808.58
2018-11-03T14:02:51.661Z,98813.92
2018-11-03T14:05:21.225Z,98816.28
2018-11-03T14:07:50.552Z,98818.13
2018-11-03T14:10:20.389Z,98817.50
2018-11-03T14:12:49.679Z,98817.84
2018-11-03T14:15:20.026Z,98813.58
2018-11-03T14:17:49.176Z,98806.54
2018-11-03T14:20:22.180Z,98816.16
2018-11-03T14:22:52.259Z,98808.83
2018-11-03T14:25:21.446Z,98809.78
2018-11-03T14:27:50.780Z,98808.56
2018-11-03T14:30:20.611Z,98804.48
2018-11-03T14:32:50.150Z,98803.39
2018-11-03T14:35:19.682Z,98806.56
2018-11-03T14:37:49.070Z,98808.88
2018-11-03T14:40:18.816Z,98802.78
2018-11-03T14:42:48.266Z,98800.66
2018-11-03T14:45:17.746Z,98793.83
2018-11-03T14:47:47.227Z,98786.27
2018-11-03T14:50:16.541Z,98784.75
2018-11-03T14:52:45.394Z,98778.95
2018-11-03T14:55:14.292Z,98777.67
2018-11-03T14:57:43.255Z,98776.46
2018-11-03T15:00:15.122Z,98777.78
2018-11-03T15:02:43.877Z,98784.23
2018-11-03T15:05:13.507Z,98782.41
2018-11-03T15:07:42.346Z,98786.05
2018-11-03T15:10:12.216Z,98782.79
2018-11-03T15:12:41.785Z,98785.61
2018-11-03T15:15:12.831Z,98782.70
2018-11-03T15:17:42.490Z,98775.75
2018-11-03T15:20:11.990Z,98782.95
2018-11-03T15:22:41.712Z,98784.38
2018-11-03T15:25:10.944Z,98780.13
2018-11-03T15:27:40.006Z,98779.69
2018-11-03T15:30:10.485Z,98775.05
2018-11-03T15:32:41.274Z,98768.66
2018-11-03T15:35:12.888Z,98771.68
2018-11-03T15:37:41.638Z,98765.20
2018-11-03T15:40:12.756Z,98766.80
2018-11-03T15:42:42.484Z,98766.05
2018-11-03T15:45:14.262Z,98764.22
2018-11-03T15:47:43.819Z,98765.06
2018-11-03T15:50:13.620Z,98755.09
2018-11-03T15:52:43.612Z,98763.89
2018-11-03T15:55:12.825Z,98763.95
2018-11-03T15:57:42.389Z,98764.62
2018-11-03T16:00:14.388Z,98768.11
2018-11-03T16:02:43.377Z,98770.07
2018-11-03T16:05:13.533Z,98772.78
2018-11-03T16:07:43.150Z,98766.33
2018-11-03T16:10:13.120Z,98763.14
2018-11-03T16:12:43.722Z,98769.08
2018-11-03T16:15:13.500Z,98781.03
2018-11-03T16:17:43.026Z,98787.08
2018-11-03T16:20:12.988Z,98779.52
2018-11-03T16:22:42.405Z,98772.49
2018-11-03T16:25:11.370Z,98776.31
2018-11-03T16:27:40.842Z,98775.23
2018-11-03T16:30:11.907Z,98778.53
2018-11-03T16:32:40.840Z,98779.98
2018-11-03T16:35:10.190Z,98784.06
2018-11-03T16:37:40.705Z,98781.91
2018-11-03T16:40:11.450Z,98785.20
2018-11-03T16:42:40.981Z,98777.09
2018-11-03T16:45:11.594Z,98782.23
2018-11-03T16:47:41.160Z,98789.84
2018-11-03T16:50:11.669Z,98789.66
2018-11-03T16:52:40.797Z,98781.05
2018-11-03T16:55:10.810Z,98779.40
2018-11-03T16:57:40.246Z,98776.75
2018-11-03T17:00:11.733Z,98779.19
2018-11-03T17:02:40.921Z,98781.08
2018-11-03T17:05:11.092Z,98776.49
2018-11-03T17:07:40.067Z,98778.17
2018-11-03T17:10:12.104Z,98774.41
2018-11-03T17:12:43.264Z,98768.71
2018-11-03T17:15:13.265Z,98770.36
2018-11-03T17:17:42.662Z,98775.53
2018-11-03T17:20:12.736Z,98778.01
2018-11-03T17:22:41.950Z,98776.67
2018-11-03T17:25:11.848Z,98771.85
2018-11-03T17:27:40.655Z,98775.33
2018-11-03T17:30:12.176Z,98771.02
2018-11-03T17:32:41.295Z,98776.16
2018-11-03T17:35:10.377Z,98776.45
2018-11-03T17:37:39.457Z,98779.72
2018-11-03T17:40:09.463Z,98775.66
2018-11-03T17:42:38.652Z,98764.92
2018-11-03T17:45:09.446Z,98775.16
2018-11-03T17:47:39.136Z,98768.15
2018-11-03T17:50:09.361Z,98765.70
2018-11-03T17:52:38.350Z,98765.98
2018-11-03T17:55:07.836Z,98766.00
2018-11-03T17:57:36.917Z,98757.66
2018-11-03T18:00:14.911Z,98758.41
2018-11-03T18:02:45.296Z,98756.32
2018-11-03T18:05:15.281Z,98748.23
2018-11-03T18:07:44.447Z,98740.39
2018-11-03T18:10:13.831Z,98740.91
2018-11-03T18:12:43.591Z,98738.74
2018-11-03T18:15:13.192Z,98733.31
2018-11-03T18:17:42.533Z,98728.19
2018-11-03T18:20:12.199Z,98724.67
2018-11-03T18:22:41.665Z,98724.97
2018-11-03T18:25:11.085Z,98730.94
2018-11-03T18:27:39.847Z,98734.19
2018-11-03T18:30:10.348Z,98727.71
2018-11-03T18:32:39.698Z,98722.84
2018-11-03T18:35:09.095Z,98725.82
2018-11-03T18:37:38.329Z,98723.90
2018-11-03T18:40:08.195Z,98719.89
2018-11-03T18:42:37.860Z,98717.74
2018-11-03T18:45:07.050Z,98722.88
2018-11-03T18:47:37.045Z,98721.27
2018-11-03T18:50:08.713Z,98721.24
2018-11-03T18:52:39.392Z,98715.84
2018-11-03T18:55:08.772Z,98710.98
2018-11-03T18:57:37.727Z,98714.83
2018-11-03T19:00:08.068Z,98711.60
2018-11-03T19:02:37.254Z,98719.74
2018-11-03T19:05:06.581Z,98715.92
2018-11-03T19:07:36.228Z,98711.63
2018-11-03T19:10:05.796Z,98716.50
2018-11-03T19:12:35.601Z,98705.10
2018-11-03T19:15:06.113Z,98711.60
2018-11-03T19:17:35.121Z,98705.69
2018-11-03T19:20:04.134Z,98711.13
2018-11-03T19:22:33.117Z,98708.66
2018-11-03T19:25:02.182Z,98710.02
2018-11-03T19:27:31.423Z,98709.77
2018-11-03T19:30:00.615Z,98705.50
2018-11-03T19:32:29.957Z,98700.94
2018-11-03T19:34:59.103Z,98703.68
2018-11-03T19:37:28.263Z,98695.27
2018-11-03T19:39:58.450Z,98692.63
2018-11-03T19:42:27.593Z,98691.00
2018-11-03T19:44:57.651Z,98688.82
2018-11-03T19:47:27.007Z,98687.17
2018-11-03T19:49:55.967Z,98682.59
2018-11-03T19:52:24.841Z,98685.56
2018-11-03T19:54:53.894Z,98682.86
2018-11-03T19:57:23.171Z,98685.58
2018-11-03T19:59:52.314Z,98684.52
2018-11-03T20:02:21.759Z,98681.77
2018-11-03T20:04:50.642Z,98681.02
2018-11-03T20:07:19.883Z,98677.52
2018-11-03T20:09:49.127Z,98680.22
2018-11-03T20:12:18.469Z,98671.06
2018-11-03T20:14:47.722Z,98667.29
2018-11-03T20:17:16.564Z,98665.66
2018-11-03T20:19:45.974Z,98673.23
2018-11-03T20:22:14.877Z,98676.77
2018-11-03T20:24:44.519Z,98680.03
2018-11-03T20:27:13.777Z,98674.91
2018-11-03T20:29:42.909Z,98674.62
2018-11-03T20:32:12.198Z,98669.50
2018-11-03T20:34:41.360Z,98675.14
2018-11-03T20:37:10.598Z,98670.31
2018-11-03T20:39:39.459Z,98670.64
2018-11-03T20:42:09.004Z,98677.46
2018-11-03T20:44:38.142Z,98671.81
2018-11-03T20:47:07.384Z,98668.28
2018-11-03T20:49:37.000Z,98666.34
2018-11-03T20:52:07.116Z,98664.95
2018-11-03T20:54:36.267Z,98662.53
2018-11-03T20:57:05.363Z,98663.06
2018-11-03T20:59:34.691Z,98658.48
2018-11-03T21:02:03.909Z,98657.45
2018-11-03T21:04:34.095Z,98655.00
2018-11-03T21:07:03.198Z,98649.34
2018-11-03T21:09:32.567Z,98646.89
2018-11-03T21:12:02.212Z,98651.24
2018-11-03T21:14:31.813Z,98643.67
2018-11-03T21:17:01.298Z,98635.33
2018-11-03T21:19:30.476Z,98639.62
2018-11-03T21:21:59.992Z,98636.67
2018-11-03T21:24:28.939Z,98630.72
2018-11-03T21:26:57.953Z,98623.13
2018-11-03T21:29:27.092Z,98628.28
2018-11-03T21:31:56.059Z,98615.63
2018-11-03T21:34:24.897Z,98615.08
2018-11-03T21:36:53.858Z,98608.32
2018-11-03T21:39:23.073Z,98609.15
2018-11-03T21:41:52.275Z,98604.27
2018-11-03T21:44:21.476Z,98603.45
2018-11-03T21:46:50.810Z,98597.27
2018-11-03T21:49:20.018Z,98591.05
2018-11-03T21:51:49.059Z,98587.28
2018-11-03T21:54:18.477Z,98587.80
2018-11-03T21:56:47.523Z,98592.67
2018-11-03T21:59:16.472Z,98602.91
2018-11-03T22:01:46.133Z,98594.80
2018-11-03T22:04:15.972Z,98596.17
2018-11-03T22:06:45.524Z,98589.16
2018-11-03T22:09:14.321Z,98588.60
2018-11-03T22:11:44.018Z,98585.34
2018-11-03T22:14:13.148Z,98579.71
2018-11-03T22:16:42.392Z,98585.63
2018-11-03T22:19:11.517Z,98587.01
2018-11-03T22:21:40.931Z,98582.97
2018-11-03T22:24:09.973Z,98580.25
2018-11-03T22:26:39.327Z,98580.25
2018-11-03T22:29:08.370Z,98575.14
2018-11-03T22:31:37.901Z,98574.94
2018-11-03T22:34:07.954Z,98575.25
2018-11-03T22:36:37.297Z,98572.55
2018-11-03T22:39:08.506Z,98573.61
2018-11-03T22:41:37.764Z,98575.17
2018-11-03T22:44:06.716Z,98577.06
2018-11-03T22:46:35.875Z,98569.51
2018-11-03T22:49:05.437Z,98567.05
2018-11-03T22:51:34.528Z,98563.52
2018-11-03T22:54:03.715Z,98564.87
2018-11-03T22:56:32.465Z,98558.41
2018-11-03T22:59:01.272Z,98568.41
2018-11-03T23:01:32.163Z,98558.45
2018-11-03T23:04:01.359Z,98550.61
2018-11-03T23:06:31.354Z,98548.69
2018-11-03T23:09:01.043Z,98551.14
2018-11-03T23:11:30.717Z,98550.94
2018-11-03T23:13:59.503Z,98552.30
2018-11-03T23:16:28.491Z,98543.91
2018-11-03T23:18:57.808Z,98543.91
2018-11-03T23:21:27.059Z,98536.91
2018-11-03T23:23:56.744Z,98542.83
2018-11-03T23:26:25.611Z,98532.27
2018-11-03T23:28:54.673Z,98527.67
2018-11-03T23:31:24.931Z,98519.30
2018-11-03T23:33:53.705Z,98523.33
2018-11-03T23:36:22.488Z,98524.16
2018-11-03T23:38:51.534Z,98510.44
2018-11-03T23:41:20.402Z,98511.23
2018-11-03T23:43:49.034Z,98509.84
2018-11-03T23:46:18.268Z,98499.64
2018-11-03T23:48:47.447Z,98497.97
2018-11-03T23:51:16.364Z,98499.33
2018-11-03T23:53:44.992Z,98493.70
2018-11-03T23:56:13.799Z,98490.20
2018-11-03T23:58:44.470Z,98493.95
